< Cyclone 195817 1958 Season Cyclone 195819 >
Cyclone 195818 (unnamed)
General InformationTrack Information on Google Maps || ResourceGoogle EarthGE AnimationAtom FeedGeoJSON
Detalied Best Track (Time Zone = UTC)
Year Month Day Hour Lat. Long. Pressure (hPa) Wind (kt) Class Image Chart
1958 6 4 05 -10.9 161.5 1005 0 0 -- --
1958 6 4 11 -10.4 160.0 1005 0 0 -- --
1958 6 4 14 -10.3 160.1 1005 0 0 -- --
1958 6 4 23 -8.9 160.2 1004 0 0 -- --
1958 6 5 11 -9.5 159.6 1004 0 0 -- --
1958 6 5 13 -9.5 159.8 1004 0 0 -- --
1958 6 5 23 -9.9 159.9 998 0 0 -- --
1958 6 6 11 -10.4 159.5 996 0 0 -- --
1958 6 6 23 -13.1 157.0 988 0 0 -- --
1958 6 7 05 -14.0 157.0 988 0 0 -- --
1958 6 7 11 -14.9 157.1 988 0 0 -- --
1958 6 7 23 -19.1 158.3 988 0 0 -- --
1958 6 8 05 -20.4 159.0 988 0 0 -- --
1958 6 8 11 -21.5 159.5 988 0 0 -- --
1958 6 8 23 -22.4 160.5 988 0 0 -- --
1958 6 9 11 -23.2 160.6 990 0 0 -- --
1958 6 9 23 -25.0 160.8 990 0 0 -- --
1958 6 10 11 -26.2 160.4 994 0 0 -- --
1958 6 10 23 -27.8 159.9 994 0 0 -- --
1958 6 11 11 -28.1 161.0 992 0 0 -- --
1958 6 11 23 -28.2 162.0 992 0 0 -- --
1958 6 12 11 -28.7 162.9 988 0 0 -- --
1958 6 12 17 -29.3 163.6 986 0 0 -- --
< Cyclone 195817 1958 Season Cyclone 195819 >

Help